Time;durP1;ratioP1;P1;durP2;ratioP2;P2;SDS_P1;SDS_P2;PMS_P1;PMS_P2;Temp;Humidity;BMP_temperature;BMP_pressure;BME280_temperature;BME280_humidity;BME280_pressure;Samples;Min_cycle;Max_cycle;Signal;HPM_P1;HPM_P2
2021/06/04 00:00:25;;;;;;;8.60;6.37;;;20.40;99.90;;;;;;5005627;28;20449;-85
2021/06/04 00:02:55;;;;;;;8.20;7.37;;;20.40;99.90;;;;;;5034105;28;20433;-85
2021/06/04 00:05:32;;;;;;;7.30;6.60;;;20.30;99.90;;;;;;5033773;28;20452;-85
2021/06/04 00:08:01;;;;;;;8.70;7.20;;;20.30;99.90;;;;;;5051167;28;20435;-85
2021/06/04 00:10:33;;;;;;;7.57;6.70;;;20.40;99.90;;;;;;5034610;28;20472;-85
2021/06/04 00:13:22;;;;;;;6.50;5.87;;;20.40;99.90;;;;;;5034384;28;20425;-85
2021/06/04 00:15:59;;;;;;;9.00;7.10;;;20.40;99.90;;;;;;4999739;28;20447;-85
2021/06/04 00:18:26;;;;;;;7.63;6.77;;;20.50;99.90;;;;;;5033170;28;20433;-85
2021/06/04 00:20:52;;;;;;;7.40;6.80;;;20.50;99.90;;;;;;5033179;28;20429;-85
2021/06/04 00:23:18;;;;;;;7.07;6.47;;;20.50;99.90;;;;;;5034330;28;20529;-85
2021/06/04 00:25:49;;;;;;;7.03;6.43;;;20.40;99.90;;;;;;5017163;28;20533;-84
2021/06/04 00:28:14;;;;;;;7.60;6.90;;;20.40;99.90;;;;;;5046795;28;20452;-85
2021/06/04 00:30:43;;;;;;;6.90;6.30;;;20.40;99.90;;;;;;5033477;28;20834;-85
2021/06/04 00:33:12;;;;;;;7.83;7.13;;;20.40;99.90;;;;;;5027245;28;20840;-85
2021/06/04 00:35:41;;;;;;;7.50;6.80;;;20.40;99.90;;;;;;5030328;28;20509;-85
2021/06/04 00:38:09;;;;;;;8.10;6.77;;;20.40;99.90;;;;;;5030647;28;20775;-85
2021/06/04 00:40:43;;;;;;;7.50;6.80;;;20.40;99.90;;;;;;5016539;28;20474;-85
2021/06/04 00:43:10;;;;;;;7.20;6.50;;;20.30;99.90;;;;;;5034548;28;20494;-85
2021/06/04 00:45:41;;;;;;;7.60;6.60;;;20.40;99.90;;;;;;5028700;28;20451;-85
2021/06/04 00:48:11;;;;;;;7.23;6.53;;;20.30;99.90;;;;;;5031652;28;20551;-85
2021/06/04 00:51:17;;;;;;;7.50;6.70;;;20.30;99.90;;;;;;5026958;28;20813;-85
2021/06/04 00:53:45;;;;;;;7.90;7.17;;;20.20;99.90;;;;;;5006534;28;20515;-85
2021/06/04 00:56:19;;;;;;;7.37;6.77;;;20.20;99.90;;;;;;4999797;28;20440;-84
2021/06/04 00:58:48;;;;;;;7.37;6.67;;;20.20;99.90;;;;;;4999429;28;20476;-85
2021/06/04 01:01:20;;;;;;;8.90;8.10;;;20.20;99.90;;;;;;5013365;28;20818;-85
2021/06/04 01:03:52;;;;;;;9.00;8.10;;;20.10;99.90;;;;;;5008044;28;20528;-84
2021/06/04 01:06:20;;;;;;;8.00;7.30;;;20.20;99.90;;;;;;5009411;28;20438;-84
2021/06/04 01:09:08;;;;;;;8.80;7.93;;;20.20;99.90;;;;;;5009762;28;20500;-84
2021/06/04 01:11:58;;;;;;;8.40;7.50;;;20.20;99.90;;;;;;5014539;28;20896;-85
2021/06/04 01:15:03;;;;;;;8.33;7.53;;;20.20;99.90;;;;;;5016622;28;20920;-85
2021/06/04 01:17:46;;;;;;;7.93;7.00;;;20.20;99.90;;;;;;5017557;28;20435;-84
2021/06/04 01:20:25;;;;;;;7.90;7.10;;;20.10;99.90;;;;;;5018115;28;20452;-85
2021/06/04 01:23:45;;;;;;;8.17;7.47;;;20.10;99.90;;;;;;5003997;28;20450;-85
2021/06/04 01:26:29;;;;;;;9.23;7.20;;;20.10;99.90;;;;;;4923624;28;20912;-84
2021/06/04 01:29:05;;;;;;;8.40;7.60;;;20.10;99.90;;;;;;4939393;28;20482;-85
2021/06/04 01:31:48;;;;;;;8.67;7.87;;;20.10;99.90;;;;;;5018764;28;20555;-85
2021/06/04 01:34:17;;;;;;;8.40;7.60;;;20.10;99.90;;;;;;4998877;28;20502;-85
2021/06/04 01:37:01;;;;;;;8.63;6.70;;;20.20;99.90;;;;;;5011713;28;20801;-85
2021/06/04 01:39:38;;;;;;;9.47;7.77;;;20.20;99.90;;;;;;5017773;28;20515;-85
2021/06/04 01:42:12;;;;;;;7.80;7.10;;;20.20;99.90;;;;;;5033345;28;20434;-85
2021/06/04 01:44:53;;;;;;;8.83;8.03;;;20.10;99.90;;;;;;4999820;28;20471;-84
2021/06/04 01:47:41;;;;;;;8.77;7.87;;;20.20;99.90;;;;;;5015627;28;20463;-84
2021/06/04 01:50:21;;;;;;;8.33;7.40;;;20.10;99.90;;;;;;5011556;28;20459;-84
2021/06/04 01:52:57;;;;;;;8.93;8.00;;;20.10;99.90;;;;;;4997047;28;20433;-84
2021/06/04 01:55:40;;;;;;;8.53;7.47;;;20.00;99.90;;;;;;5014755;28;20914;-85
2021/06/04 01:58:16;;;;;;;8.67;7.73;;;20.00;99.90;;;;;;5014738;28;20521;-85
2021/06/04 02:00:53;;;;;;;8.43;7.33;;;20.00;99.90;;;;;;5001139;28;20433;-84
2021/06/04 02:03:25;;;;;;;8.10;7.37;;;20.00;99.90;;;;;;5008989;28;20425;-84
2021/06/04 02:06:01;;;;;;;8.83;8.03;;;20.00;99.90;;;;;;5008855;28;20467;-84
2021/06/04 02:08:35;;;;;;;9.50;8.67;;;20.00;99.90;;;;;;5014975;28;20519;-84
2021/06/04 02:11:07;;;;;;;10.13;7.97;;;19.90;99.90;;;;;;5014852;28;21012;-84
2021/06/04 02:13:34;;;;;;;12.13;7.60;;;19.90;99.90;;;;;;5008046;28;20443;-85
2021/06/04 02:16:22;;;;;;;8.60;7.80;;;20.00;99.90;;;;;;5033740;28;20458;-84
2021/06/04 02:19:10;;;;;;;8.33;7.57;;;19.90;99.90;;;;;;5013594;28;20828;-85
2021/06/04 02:21:58;;;;;;;7.93;7.13;;;19.90;99.90;;;;;;5024788;28;20832;-85
2021/06/04 02:24:43;;;;;;;8.00;7.20;;;19.90;99.90;;;;;;5026110;28;20434;-85
2021/06/04 02:27:36;;;;;;;8.60;7.80;;;19.90;99.90;;;;;;5047997;28;20470;-84
2021/06/04 02:30:12;;;;;;;8.17;7.47;;;19.90;99.90;;;;;;5038715;28;20512;-84
2021/06/04 02:32:52;;;;;;;8.17;7.47;;;20.00;99.90;;;;;;4997353;28;20987;-85
2021/06/04 02:35:32;;;;;;;9.40;7.27;;;20.00;99.90;;;;;;5002728;28;20439;-85
2021/06/04 02:38:15;;;;;;;8.40;7.67;;;19.90;99.90;;;;;;5015948;28;20500;-85
2021/06/04 02:40:50;;;;;;;8.70;8.00;;;20.00;99.90;;;;;;5012227;28;20883;-85
2021/06/04 02:43:28;;;;;;;8.70;7.80;;;19.90;99.90;;;;;;4994205;28;20449;-85
2021/06/04 02:46:12;;;;;;;9.00;8.10;;;19.90;99.90;;;;;;5001174;28;20501;-85
2021/06/04 02:48:45;;;;;;;9.73;8.10;;;19.90;99.90;;;;;;5012754;28;20436;-84
2021/06/04 02:51:30;;;;;;;9.00;7.77;;;20.00;99.90;;;;;;5010403;28;20824;-85
2021/06/04 02:54:09;;;;;;;9.57;8.57;;;19.90;99.90;;;;;;5015847;28;20439;-84
2021/06/04 02:56:45;;;;;;;8.70;7.90;;;19.90;99.90;;;;;;5019594;28;20817;-85
2021/06/04 02:59:20;;;;;;;8.83;7.23;;;19.90;99.90;;;;;;5008489;28;20447;-85
2021/06/04 03:01:54;;;;;;;9.73;8.17;;;19.90;99.90;;;;;;5027810;28;20833;-84
2021/06/04 03:04:22;;;;;;;9.17;8.37;;;19.90;99.90;;;;;;5027992;28;20451;-85
2021/06/04 03:06:57;;;;;;;9.10;8.20;;;19.90;99.90;;;;;;5015979;28;20842;-84
2021/06/04 03:09:34;;;;;;;9.30;8.37;;;19.90;99.90;;;;;;5006233;28;20451;-85
2021/06/04 03:12:17;;;;;;;8.40;7.57;;;20.00;99.90;;;;;;5013713;28;20522;-84
2021/06/04 03:14:47;;;;;;;11.60;8.10;;;19.90;99.90;;;;;;5032940;28;20756;-84
2021/06/04 03:17:16;;;;;;;9.10;8.27;;;19.90;99.90;;;;;;5023388;28;20451;-85
2021/06/04 03:19:45;;;;;;;9.20;8.30;;;19.90;99.90;;;;;;5016375;28;20463;-85
2021/06/04 03:22:27;;;;;;;12.40;8.03;;;19.80;99.90;;;;;;5032133;28;20895;-85
2021/06/04 03:24:59;;;;;;;8.90;8.10;;;19.70;99.90;;;;;;5019503;28;20442;-85
2021/06/04 03:27:26;;;;;;;8.70;7.90;;;19.70;99.90;;;;;;5009424;28;20543;-84
2021/06/04 03:29:56;;;;;;;10.13;8.87;;;19.80;99.90;;;;;;5037459;28;20560;-85
2021/06/04 03:32:25;;;;;;;9.20;8.33;;;19.80;99.90;;;;;;5024188;28;20504;-84
2021/06/04 03:34:59;;;;;;;10.87;8.07;;;19.70;99.90;;;;;;5022120;28;20447;-84
2021/06/04 03:37:25;;;;;;;9.10;8.30;;;19.70;99.90;;;;;;5022443;28;20466;-85
2021/06/04 03:39:51;;;;;;;9.40;8.50;;;19.70;99.90;;;;;;5017854;28;20502;-84
2021/06/04 03:42:27;;;;;;;9.20;8.30;;;19.70;99.90;;;;;;5022041;28;20475;-85
2021/06/04 03:44:57;;;;;;;10.47;9.13;;;19.70;99.90;;;;;;5030457;28;20437;-85
2021/06/04 03:47:27;;;;;;;10.60;9.60;;;19.70;99.90;;;;;;5021909;28;20439;-85
2021/06/04 03:49:57;;;;;;;10.30;9.30;;;19.70;99.90;;;;;;5021766;28;20436;-84
2021/06/04 03:52:26;;;;;;;10.83;9.80;;;19.70;99.90;;;;;;5018111;28;20448;-85
2021/06/04 03:54:55;;;;;;;10.33;9.23;;;19.70;99.90;;;;;;5029559;28;20433;-85
2021/06/04 03:57:29;;;;;;;10.70;9.70;;;19.70;99.90;;;;;;5039361;28;20499;-82
2021/06/04 03:59:56;;;;;;;10.90;9.80;;;19.70;99.90;;;;;;5034587;28;20452;-82
2021/06/04 04:02:28;;;;;;;11.30;10.20;;;19.70;99.90;;;;;;5022465;28;20446;-83
2021/06/04 04:04:58;;;;;;;10.50;9.43;;;19.70;99.90;;;;;;5039681;28;20790;-82
2021/06/04 04:07:28;;;;;;;9.40;8.60;;;19.70;99.90;;;;;;5036428;28;20480;-82
2021/06/04 04:09:55;;;;;;;12.23;10.60;;;19.80;99.90;;;;;;5054116;28;20443;-82
2021/06/04 04:12:26;;;;;;;10.90;9.60;;;19.70;99.90;;;;;;5021870;28;20435;-82
2021/06/04 04:14:53;;;;;;;10.27;9.33;;;19.80;99.90;;;;;;5039260;28;20473;-81
2021/06/04 04:17:21;;;;;;;11.90;10.47;;;19.80;99.90;;;;;;5049586;28;20444;-82
2021/06/04 04:19:49;;;;;;;10.10;9.20;;;19.80;99.90;;;;;;5037162;28;20447;-80
2021/06/04 04:22:17;;;;;;;10.93;9.67;;;19.80;99.90;;;;;;5024858;28;20480;-80
2021/06/04 04:24:44;;;;;;;11.53;10.07;;;19.80;99.90;;;;;;5011451;28;20936;-81
2021/06/04 04:27:11;;;;;;;11.57;10.23;;;19.90;99.90;;;;;;5004023;28;20466;-81
2021/06/04 04:29:39;;;;;;;12.20;11.00;;;19.90;99.90;;;;;;5035496;28;20467;-81
2021/06/04 04:32:13;;;;;;;13.23;11.40;;;19.90;99.90;;;;;;5010839;28;20506;-81
2021/06/04 04:34:43;;;;;;;12.80;11.60;;;20.00;99.90;;;;;;5043588;28;20432;-81
2021/06/04 04:37:12;;;;;;;13.43;12.03;;;20.00;99.90;;;;;;5024695;28;20514;-81
2021/06/04 04:39:45;;;;;;;13.53;12.13;;;20.00;99.90;;;;;;5046784;28;20506;-81
2021/06/04 04:42:19;;;;;;;13.37;12.07;;;20.10;99.90;;;;;;5053440;28;21096;-81
2021/06/04 04:44:46;;;;;;;13.07;11.87;;;20.10;99.90;;;;;;5044564;28;20506;-81
2021/06/04 04:47:15;;;;;;;14.20;12.80;;;20.10;99.90;;;;;;5039243;28;20424;-81
2021/06/04 04:49:42;;;;;;;17.87;12.40;;;20.20;99.90;;;;;;5040710;28;20481;-82
2021/06/04 04:52:12;;;;;;;13.47;12.17;;;20.20;99.90;;;;;;5054605;28;20831;-81
2021/06/04 04:54:44;;;;;;;15.20;13.70;;;20.20;99.90;;;;;;5053063;28;20543;-82
2021/06/04 04:57:14;;;;;;;14.47;13.17;;;20.30;99.90;;;;;;5047284;28;20524;-82
2021/06/04 04:59:40;;;;;;;17.33;13.17;;;20.30;99.90;;;;;;5040058;28;20506;-82
2021/06/04 05:02:09;;;;;;;17.13;13.17;;;20.40;99.90;;;;;;5055931;28;20489;-82
2021/06/04 05:04:36;;;;;;;13.50;12.27;;;20.50;99.90;;;;;;5035892;28;20428;-81
2021/06/04 05:07:05;;;;;;;14.47;12.97;;;20.50;99.90;;;;;;5053419;28;20424;-82
2021/06/04 05:09:34;;;;;;;14.03;12.20;;;20.70;99.90;;;;;;5053458;28;20431;-82
2021/06/04 05:12:03;;;;;;;15.27;13.40;;;20.70;99.90;;;;;;5048765;28;20472;-82
2021/06/04 05:14:31;;;;;;;13.53;12.33;;;20.80;99.90;;;;;;5053389;28;20821;-82
2021/06/04 05:16:58;;;;;;;14.80;13.27;;;20.90;99.90;;;;;;5049431;28;20457;-82
2021/06/04 05:19:24;;;;;;;15.37;13.93;;;21.00;99.90;;;;;;5052417;28;20440;-82
2021/06/04 05:21:53;;;;;;;17.87;14.27;;;21.00;99.90;;;;;;5063639;28;20488;-82
2021/06/04 05:24:19;;;;;;;18.87;14.30;;;21.10;99.90;;;;;;5060138;28;20852;-82
2021/06/04 05:26:44;;;;;;;15.63;14.17;;;21.10;99.90;;;;;;5053052;28;20444;-82
2021/06/04 05:29:10;;;;;;;18.30;15.50;;;21.10;99.90;;;;;;5052669;28;20835;-81
2021/06/04 05:31:39;;;;;;;19.33;16.20;;;21.10;99.90;;;;;;5037465;28;20481;-82
2021/06/04 05:34:06;;;;;;;18.60;15.90;;;21.10;99.90;;;;;;5040847;28;20450;-82
2021/06/04 05:36:34;;;;;;;24.23;17.37;;;21.10;99.90;;;;;;5009565;28;20429;-82
2021/06/04 05:39:24;;;;;;;26.33;18.60;;;21.10;99.90;;;;;;5033726;28;20524;-82
2021/06/04 05:41:55;;;;;;;21.00;18.10;;;21.10;99.90;;;;;;5031862;28;21374;-82
2021/06/04 05:44:24;;;;;;;22.60;16.80;;;21.10;99.90;;;;;;5024548;28;20453;-82
2021/06/04 05:46:54;;;;;;;17.47;14.50;;;21.10;99.90;;;;;;5015817;28;21647;-83
2021/06/04 05:49:23;;;;;;;17.63;14.70;;;21.20;99.90;;;;;;5030108;28;20494;-82
2021/06/04 05:51:50;;;;;;;18.33;14.60;;;21.20;99.90;;;;;;5034517;28;20472;-82
2021/06/04 05:54:18;;;;;;;18.23;15.80;;;21.30;99.90;;;;;;5018121;28;20483;-83
2021/06/04 05:56:44;;;;;;;20.97;18.83;;;21.30;99.90;;;;;;5022686;28;20439;-82
2021/06/04 05:59:12;;;;;;;22.17;18.83;;;21.40;99.90;;;;;;5016727;28;20921;-82
2021/06/04 06:01:46;;;;;;;24.37;20.10;;;21.50;99.90;;;;;;5032278;28;20530;-83
2021/06/04 06:04:13;;;;;;;22.97;20.63;;;21.50;99.90;;;;;;5025771;28;20457;-82
2021/06/04 06:06:39;;;;;;;24.47;19.60;;;21.50;99.90;;;;;;5033360;28;20882;-82
2021/06/04 06:09:06;;;;;;;29.00;23.57;;;21.60;99.90;;;;;;5035082;28;20445;-82
2021/06/04 06:11:38;;;;;;;26.10;22.53;;;21.50;99.90;;;;;;5041156;28;20957;-82
2021/06/04 06:14:07;;;;;;;33.30;26.47;;;21.50;99.90;;;;;;5019995;28;20509;-82
2021/06/04 06:16:33;;;;;;;27.50;23.77;;;21.40;99.90;;;;;;5048604;28;20441;-80
2021/06/04 06:19:00;;;;;;;31.43;23.70;;;21.40;99.90;;;;;;5039525;28;20989;-79
2021/06/04 06:21:27;;;;;;;29.60;26.30;;;21.40;99.90;;;;;;5046843;28;20449;-80
2021/06/04 06:23:56;;;;;;;32.30;27.90;;;21.50;99.90;;;;;;5049144;28;20434;-81
2021/06/04 06:26:24;;;;;;;30.37;27.07;;;21.50;99.90;;;;;;5033428;28;20447;-79
2021/06/04 06:28:53;;;;;;;31.67;26.10;;;21.60;99.90;;;;;;5025392;28;20439;-81
2021/06/04 06:31:28;;;;;;;29.70;26.50;;;21.80;99.90;;;;;;5016613;28;20554;-82
2021/06/04 06:33:54;;;;;;;34.17;28.87;;;21.90;99.90;;;;;;5020363;28;20497;-81
2021/06/04 06:36:26;;;;;;;35.00;29.73;;;22.00;99.90;;;;;;5019574;28;20472;-81
2021/06/04 06:38:55;;;;;;;30.83;27.57;;;22.00;99.90;;;;;;5032264;28;20433;-81
2021/06/04 06:41:25;;;;;;;32.70;29.30;;;22.10;99.90;;;;;;5024794;28;20519;-82
2021/06/04 06:43:52;;;;;;;36.97;30.00;;;22.20;99.90;;;;;;5032740;28;20519;-81
2021/06/04 06:46:23;;;;;;;40.17;31.43;;;22.30;99.90;;;;;;5027877;28;20534;-79
2021/06/04 06:48:49;;;;;;;39.17;32.70;;;22.30;99.90;;;;;;5033630;28;20456;-79
2021/06/04 06:51:18;;;;;;;35.00;31.20;;;22.30;99.90;;;;;;5041218;28;20477;-82
2021/06/04 06:53:49;;;;;;;38.43;32.93;;;22.40;99.90;;;;;;5028165;28;20969;-79
2021/06/04 06:56:19;;;;;;;33.57;29.60;;;22.40;99.90;;;;;;5037203;28;20431;-78
2021/06/04 06:58:48;;;;;;;33.07;29.63;;;22.50;99.90;;;;;;5029853;28;20435;-78
2021/06/04 07:01:14;;;;;;;35.43;31.77;;;22.60;99.90;;;;;;5032292;28;20438;-79
2021/06/04 07:03:43;;;;;;;35.43;31.27;;;22.70;99.90;;;;;;5034621;28;20433;-80
2021/06/04 07:06:19;;;;;;;35.67;31.20;;;22.80;99.90;;;;;;5031659;28;20496;-79
2021/06/04 07:08:49;;;;;;;42.37;32.53;;;22.80;99.90;;;;;;5031480;28;20435;-78
2021/06/04 07:11:19;;;;;;;40.30;32.77;;;22.90;99.90;;;;;;5032473;28;20471;-78
2021/06/04 07:13:52;;;;;;;41.70;36.33;;;22.90;99.90;;;;;;5031152;28;20423;-78
2021/06/04 07:16:19;;;;;;;40.10;35.80;;;23.00;99.90;;;;;;5043759;28;20427;-78
2021/06/04 07:18:50;;;;;;;37.10;32.47;;;23.00;99.90;;;;;;5026901;28;20450;-78
2021/06/04 07:21:16;;;;;;;42.57;32.57;;;23.10;99.90;;;;;;5030011;28;20539;-78
2021/06/04 07:23:42;;;;;;;37.37;33.47;;;23.20;99.90;;;;;;5032595;28;20504;-80
2021/06/04 07:26:13;;;;;;;41.70;36.80;;;23.30;99.90;;;;;;5027868;28;20446;-80
2021/06/04 07:28:43;;;;;;;38.60;34.30;;;23.30;99.90;;;;;;5031138;28;20459;-80
2021/06/04 07:31:13;;;;;;;41.17;36.70;;;23.30;99.90;;;;;;5057027;28;20477;-80
2021/06/04 07:33:48;;;;;;;42.07;34.20;;;23.30;99.90;;;;;;5043722;28;20438;-79
2021/06/04 07:36:26;;;;;;;45.03;35.50;;;23.40;99.90;;;;;;5053723;28;20436;-79
2021/06/04 07:38:52;;;;;;;38.93;33.80;;;23.40;99.90;;;;;;5055887;28;20425;-79
2021/06/04 07:41:22;;;;;;;42.00;36.63;;;23.50;99.90;;;;;;5062777;28;20444;-80
2021/06/04 07:43:50;;;;;;;41.37;36.30;;;23.50;99.90;;;;;;5038095;28;20846;-79
2021/06/04 07:46:21;;;;;;;43.90;37.73;;;23.50;99.90;;;;;;5055971;28;20923;-79
2021/06/04 07:48:47;;;;;;;40.00;35.70;;;23.50;99.90;;;;;;5039832;28;20465;-79
2021/06/04 07:51:18;;;;;;;38.77;34.73;;;23.60;99.90;;;;;;5066878;28;20808;-79
2021/06/04 07:53:46;;;;;;;40.00;34.93;;;23.70;99.90;;;;;;5055397;28;20580;-79
2021/06/04 07:56:16;;;;;;;38.13;34.03;;;23.80;99.90;;;;;;5055355;28;20430;-81
2021/06/04 07:58:49;;;;;;;39.73;33.80;;;23.80;99.90;;;;;;5055770;28;20426;-81
2021/06/04 08:01:17;;;;;;;39.80;35.43;;;23.80;99.90;;;;;;5064923;28;20762;-80
2021/06/04 08:03:45;;;;;;;48.17;34.80;;;23.80;99.90;;;;;;5068963;28;20445;-80
2021/06/04 08:06:13;;;;;;;42.57;36.00;;;23.70;99.90;;;;;;5058870;28;20438;-80
2021/06/04 08:08:40;;;;;;;38.47;34.27;;;23.60;99.90;;;;;;5062437;28;21014;-81
2021/06/04 08:11:11;;;;;;;36.70;32.80;;;23.70;99.90;;;;;;5037804;28;20514;-81
2021/06/04 08:13:40;;;;;;;34.80;31.23;;;23.80;99.90;;;;;;5017777;28;20430;-81
2021/06/04 08:16:11;;;;;;;32.30;28.80;;;24.00;99.90;;;;;;5054187;28;20583;-81
2021/06/04 08:18:37;;;;;;;32.63;28.90;;;24.10;99.90;;;;;;5056772;28;20915;-82
2021/06/04 08:21:08;;;;;;;31.33;28.07;;;24.20;99.90;;;;;;5057320;28;20454;-81
2021/06/04 08:23:39;;;;;;;30.53;26.83;;;24.30;99.90;;;;;;5062350;28;20917;-82
2021/06/04 08:26:16;;;;;;;29.10;26.00;;;24.40;99.90;;;;;;5054118;28;20769;-82
2021/06/04 08:28:47;;;;;;;32.50;26.57;;;24.40;99.90;;;;;;5037352;28;20460;-81
2021/06/04 08:31:16;;;;;;;30.57;27.47;;;24.50;99.90;;;;;;5054104;28;20570;-80
2021/06/04 08:33:43;;;;;;;33.63;29.97;;;24.70;99.90;;;;;;5023615;28;20758;-81
2021/06/04 08:36:16;;;;;;;36.63;30.43;;;24.80;99.90;;;;;;5054753;28;20931;-81
2021/06/04 08:38:43;;;;;;;33.40;28.13;;;24.90;99.90;;;;;;5062506;28;20907;-80
2021/06/04 08:41:29;;;;;;;30.10;27.10;;;24.90;99.90;;;;;;5071323;28;20418;-79
2021/06/04 08:44:22;;;;;;;29.37;26.47;;;25.00;99.90;;;;;;5058598;28;20776;-79
2021/06/04 08:47:07;;;;;;;31.83;27.13;;;24.90;99.90;;;;;;5054819;28;20442;-79
2021/06/04 08:49:58;;;;;;;32.03;28.60;;;24.90;99.90;;;;;;5060758;28;20437;-78
2021/06/04 08:52:55;;;;;;;30.27;26.50;;;25.00;99.90;;;;;;5050613;28;20498;-79
2021/06/04 08:55:44;;;;;;;30.80;27.70;;;25.20;99.90;;;;;;5041713;28;20438;-81
2021/06/04 08:58:34;;;;;;;37.77;33.10;;;25.30;99.90;;;;;;5062294;28;20445;-82
2021/06/04 09:01:05;;;;;;;31.70;26.13;;;25.40;99.90;;;;;;5048140;28;20431;-81
2021/06/04 09:03:37;;;;;;;31.93;27.63;;;25.50;99.90;;;;;;5061868;28;20437;-82
2021/06/04 09:06:08;;;;;;;32.20;28.87;;;25.70;99.90;;;;;;5061417;28;20509;-82
2021/06/04 09:08:38;;;;;;;35.17;31.47;;;25.90;99.90;;;;;;5060593;28;20513;-82
2021/06/04 09:11:36;;;;;;;33.73;30.33;;;26.10;99.90;;;;;;5045048;28;20495;-83
2021/06/04 09:14:04;;;;;;;33.00;29.70;;;26.40;99.90;;;;;;5064829;28;20439;-79
2021/06/04 09:16:51;;;;;;;33.20;29.90;;;26.80;99.90;;;;;;5056558;28;20430;-80
2021/06/04 09:19:31;;;;;;;35.53;31.83;;;26.90;99.90;;;;;;5054686;28;20422;-80
2021/06/04 09:21:59;;;;;;;37.60;33.70;;;27.00;99.90;;;;;;5051009;28;20432;-80
2021/06/04 09:24:29;;;;;;;40.07;36.07;;;27.00;99.90;;;;;;5064431;28;20787;-81
2021/06/04 09:26:58;;;;;;;39.43;35.23;;;26.90;99.90;;;;;;5036663;28;20474;-81
2021/06/04 09:29:29;;;;;;;38.40;34.77;;;26.90;99.90;;;;;;5053515;28;20436;-81
2021/06/04 09:32:20;;;;;;;33.20;29.80;;;27.00;99.90;;;;;;5043512;28;20470;-78
2021/06/04 09:34:49;;;;;;;34.43;31.07;;;27.10;99.90;;;;;;5044240;28;20476;-78
2021/06/04 09:37:21;;;;;;;36.93;31.50;;;27.30;99.90;;;;;;5034611;28;20474;-78
2021/06/04 09:39:52;;;;;;;35.90;32.23;;;27.40;99.10;;;;;;5045844;28;20511;-78
2021/06/04 09:42:27;;;;;;;30.90;27.93;;;27.20;99.30;;;;;;5048089;28;20526;-78
2021/06/04 09:44:59;;;;;;;36.67;33.00;;;27.30;99.60;;;;;;5043511;28;20425;-78
2021/06/04 09:47:34;;;;;;;34.07;30.67;;;27.40;98.70;;;;;;5036274;28;20800;-79
2021/06/04 09:50:30;;;;;;;34.87;31.57;;;27.60;98.20;;;;;;5038646;28;20444;-79
2021/06/04 09:53:24;;;;;;;35.97;32.77;;;27.80;97.20;;;;;;5053647;28;20441;-79
2021/06/04 09:56:14;;;;;;;35.93;32.27;;;28.00;96.40;;;;;;5051098;28;20486;-79
2021/06/04 09:59:03;;;;;;;36.53;32.70;;;28.30;96.80;;;;;;5055671;28;20795;-78
2021/06/04 10:01:47;;;;;;;34.80;31.70;;;28.30;96.00;;;;;;5027920;28;20505;-78
2021/06/04 10:04:32;;;;;;;33.53;30.53;;;28.60;95.20;;;;;;5039449;28;20441;-78
2021/06/04 10:07:06;;;;;;;35.67;32.30;;;28.70;94.70;;;;;;5030252;28;20910;-78
2021/06/04 10:09:43;;;;;;;37.50;33.83;;;28.70;93.90;;;;;;5036067;28;20427;-79
2021/06/04 10:12:36;;;;;;;38.07;34.33;;;28.50;94.60;;;;;;5035836;28;20476;-79
2021/06/04 10:15:24;;;;;;;38.43;34.83;;;28.80;93.50;;;;;;5057573;28;20458;-80
2021/06/04 10:20:39;;;;;;;37.93;34.33;;;29.20;93.10;;;;;;5047554;28;20434;-79
2021/06/04 10:23:14;;;;;;;39.70;35.23;;;29.30;92.40;;;;;;5046457;28;20907;-80
2021/06/04 10:25:50;;;;;;;40.47;36.47;;;29.10;91.10;;;;;;5058875;28;20441;-80
2021/06/04 10:28:28;;;;;;;37.33;33.90;;;28.90;92.70;;;;;;5024468;28;20909;-80
2021/06/04 10:31:07;;;;;;;39.73;36.00;;;28.70;93.10;;;;;;5058625;28;20505;-79
2021/06/04 10:34:10;;;;;;;35.93;32.20;;;28.60;92.40;;;;;;5048207;28;20436;-79
2021/06/04 10:36:39;;;;;;;36.23;32.70;;;28.60;93.80;;;;;;5049768;28;20465;-81
2021/06/04 10:39:31;;;;;;;32.27;29.33;;;28.80;91.60;;;;;;5062599;28;20455;-81
2021/06/04 10:42:22;;;;;;;35.90;32.40;;;29.00;91.60;;;;;;4996821;28;20443;-80
2021/06/04 10:45:17;;;;;;;35.50;32.10;;;28.80;91.30;;;;;;5053701;28;20632;-81
2021/06/04 10:48:13;;;;;;;33.60;30.60;;;28.70;91.80;;;;;;5028946;28;20427;-81
2021/06/04 10:50:52;;;;;;;33.07;30.07;;;28.70;91.70;;;;;;5044907;28;20455;-81
2021/06/04 10:53:28;;;;;;;34.07;30.97;;;28.70;91.50;;;;;;5033245;28;20506;-81
2021/06/04 10:55:57;;;;;;;31.37;28.73;;;28.70;91.60;;;;;;5050998;28;20429;-80
2021/06/04 10:58:40;;;;;;;32.70;29.60;;;28.80;91.10;;;;;;5056353;28;20441;-80
2021/06/04 11:01:12;;;;;;;31.67;28.77;;;29.20;91.60;;;;;;5049854;28;20867;-80
2021/06/04 11:03:59;;;;;;;30.90;28.20;;;29.50;89.00;;;;;;5034040;28;20882;-81
2021/06/04 11:06:59;;;;;;;30.67;27.93;;;29.80;88.60;;;;;;5033536;28;20434;-83
2021/06/04 11:09:54;;;;;;;32.63;29.73;;;30.10;88.10;;;;;;5047553;28;20923;-83
2021/06/04 11:12:28;;;;;;;32.63;29.67;;;30.60;88.00;;;;;;5042382;28;21749;-83
2021/06/04 11:14:56;;;;;;;29.60;26.90;;;30.80;84.10;;;;;;5052437;28;20501;-82
2021/06/04 11:17:49;;;;;;;29.43;26.40;;;31.00;82.70;;;;;;5052596;28;20510;-82
2021/06/04 11:20:23;;;;;;;29.93;27.27;;;31.20;83.80;;;;;;5046450;28;20418;-83
2021/06/04 11:23:02;;;;;;;28.67;26.07;;;31.50;79.60;;;;;;5060433;28;20823;-80
2021/06/04 11:25:53;;;;;;;31.83;28.93;;;31.70;82.40;;;;;;5054369;28;20433;-81
2021/06/04 11:28:48;;;;;;;34.00;31.00;;;31.30;77.40;;;;;;5055965;28;20471;-81
2021/06/04 11:31:28;;;;;;;33.10;30.40;;;30.30;79.40;;;;;;5055221;28;20474;-81
2021/06/04 11:33:58;;;;;;;34.07;31.07;;;29.90;81.80;;;;;;5055086;28;20763;-81
2021/06/04 11:36:34;;;;;;;31.17;27.97;;;29.60;83.70;;;;;;5057002;28;20433;-81
2021/06/04 11:39:11;;;;;;;33.13;30.03;;;29.30;83.90;;;;;;5042073;28;20435;-80
2021/06/04 11:41:54;;;;;;;31.77;28.77;;;28.90;83.60;;;;;;5051476;28;20423;-81
2021/06/04 11:44:42;;;;;;;30.17;27.20;;;28.90;84.80;;;;;;5046236;28;20449;-81
2021/06/04 11:47:18;;;;;;;32.43;29.50;;;28.90;86.40;;;;;;5052337;28;20481;-80
2021/06/04 11:49:53;;;;;;;32.70;29.60;;;29.20;85.70;;;;;;5067743;28;20583;-81
2021/06/04 11:52:32;;;;;;;31.23;28.43;;;29.70;84.30;;;;;;5062399;28;20536;-81
2021/06/04 11:55:26;;;;;;;35.03;31.83;;;30.10;83.70;;;;;;5056563;28;20421;-81
2021/06/04 11:57:55;;;;;;;29.57;27.00;;;30.40;84.30;;;;;;5011398;28;20458;-79
2021/06/04 12:00:39;;;;;;;34.70;31.37;;;30.80;77.10;;;;;;5061800;28;20481;-80
2021/06/04 12:03:14;;;;;;;30.60;27.43;;;31.20;77.80;;;;;;5039241;28;20434;-80
2021/06/04 12:05:43;;;;;;;32.17;29.37;;;31.50;78.80;;;;;;5053855;28;20430;-80
2021/06/04 12:08:38;;;;;;;31.30;28.60;;;31.50;76.70;;;;;;5012563;28;21074;-79
2021/06/04 12:11:22;;;;;;;30.50;27.80;;;31.30;75.30;;;;;;5039182;28;20466;-80
2021/06/04 12:13:52;;;;;;;33.57;30.37;;;31.40;76.40;;;;;;5040344;28;20963;-80
2021/06/04 12:16:27;;;;;;;30.03;27.77;;;31.70;74.10;;;;;;5030785;28;20928;-80
2021/06/04 12:19:07;;;;;;;32.63;29.87;;;31.90;73.40;;;;;;5060078;28;20433;-80
2021/06/04 12:21:39;;;;;;;31.30;28.40;;;31.40;72.70;;;;;;5016949;28;20584;-79
2021/06/04 12:24:34;;;;;;;30.77;28.20;;;31.10;74.00;;;;;;5049318;28;20437;-79
2021/06/04 12:27:12;;;;;;;30.00;27.23;;;30.90;74.70;;;;;;5048057;28;20447;-79
2021/06/04 12:29:40;;;;;;;30.90;28.30;;;31.20;75.00;;;;;;5058865;28;20439;-79
2021/06/04 12:32:17;;;;;;;31.40;28.70;;;31.30;74.10;;;;;;5057330;28;20560;-80
2021/06/04 12:34:48;;;;;;;29.43;26.83;;;31.40;73.50;;;;;;5036812;28;20906;-80
2021/06/04 12:37:20;;;;;;;29.40;27.03;;;31.50;72.50;;;;;;5048406;28;20504;-80
2021/06/04 12:39:49;;;;;;;28.57;26.00;;;31.60;72.90;;;;;;5055138;28;20926;-80
2021/06/04 12:42:24;;;;;;;27.67;25.20;;;32.00;73.90;;;;;;5054686;28;20450;-80
2021/06/04 12:44:59;;;;;;;28.20;25.40;;;32.40;72.00;;;;;;5057195;28;20450;-81
2021/06/04 12:47:40;;;;;;;32.20;27.10;;;32.40;71.40;;;;;;5023961;28;20458;-80
2021/06/04 12:50:17;;;;;;;27.90;25.70;;;32.30;69.90;;;;;;5049355;28;20467;-79
2021/06/04 12:52:46;;;;;;;28.03;25.73;;;32.20;69.70;;;;;;5053703;28;20450;-80
2021/06/04 12:55:38;;;;;;;26.60;24.30;;;32.20;70.60;;;;;;5043570;28;20431;-80
2021/06/04 12:58:25;;;;;;;24.13;22.27;;;32.20;70.00;;;;;;5046716;28;20907;-80
2021/06/04 13:01:09;;;;;;;27.70;25.20;;;32.70;73.10;;;;;;5054598;28;20457;-79
2021/06/04 13:03:53;;;;;;;27.73;25.73;;;32.70;66.00;;;;;;5068483;28;20466;-81
2021/06/04 13:06:29;;;;;;;27.77;25.50;;;32.80;64.40;;;;;;5045116;28;20441;-80
2021/06/04 13:08:56;;;;;;;23.90;22.10;;;33.10;63.70;;;;;;5059988;28;20434;-80
2021/06/04 13:11:38;;;;;;;25.53;23.10;;;33.10;63.90;;;;;;5063818;28;20462;-80
2021/06/04 13:14:33;;;;;;;24.33;22.37;;;32.90;63.40;;;;;;5053588;28;20450;-79